sensor_id;sensor_type;location;lat;lon;timestamp;P1;durP1;ratioP1;P2;durP2;ratioP2
55222;SDS011;41090;48.632;12.428;2022-07-01T00:01:19;7.37;;;5.20;;
55222;SDS011;41090;48.632;12.428;2022-07-01T00:03:44;6.40;;;4.23;;
55222;SDS011;41090;48.632;12.428;2022-07-01T00:06:14;5.53;;;4.83;;
55222;SDS011;41090;48.632;12.428;2022-07-01T00:08:39;5.13;;;4.67;;
55222;SDS011;41090;48.632;12.428;2022-07-01T00:11:05;6.23;;;4.60;;
55222;SDS011;41090;48.632;12.428;2022-07-01T00:13:30;8.00;;;5.20;;
55222;SDS011;41090;48.632;12.428;2022-07-01T00:15:55;5.57;;;4.80;;
55222;SDS011;41090;48.632;12.428;2022-07-01T00:18:21;6.67;;;5.23;;
55222;SDS011;41090;48.632;12.428;2022-07-01T00:20:48;5.30;;;4.80;;
55222;SDS011;41090;48.632;12.428;2022-07-01T00:23:15;4.67;;;4.13;;
55222;SDS011;41090;48.632;12.428;2022-07-01T00:25:41;4.67;;;4.30;;
55222;SDS011;41090;48.632;12.428;2022-07-01T00:28:07;7.47;;;4.60;;
55222;SDS011;41090;48.632;12.428;2022-07-01T00:30:32;6.07;;;4.97;;
55222;SDS011;41090;48.632;12.428;2022-07-01T00:32:57;5.27;;;4.70;;
55222;SDS011;41090;48.632;12.428;2022-07-01T00:35:22;8.67;;;5.10;;
55222;SDS011;41090;48.632;12.428;2022-07-01T00:37:48;6.77;;;5.10;;
55222;SDS011;41090;48.632;12.428;2022-07-01T00:40:13;5.97;;;5.00;;
55222;SDS011;41090;48.632;12.428;2022-07-01T00:42:39;11.30;;;4.80;;
55222;SDS011;41090;48.632;12.428;2022-07-01T00:45:06;7.07;;;4.90;;
55222;SDS011;41090;48.632;12.428;2022-07-01T00:47:31;8.37;;;4.90;;
55222;SDS011;41090;48.632;12.428;2022-07-01T00:49:56;6.30;;;4.90;;
55222;SDS011;41090;48.632;12.428;2022-07-01T00:52:22;6.80;;;4.60;;
55222;SDS011;41090;48.632;12.428;2022-07-01T00:54:47;9.60;;;4.47;;
55222;SDS011;41090;48.632;12.428;2022-07-01T00:57:12;5.80;;;4.00;;
55222;SDS011;41090;48.632;12.428;2022-07-01T00:59:38;5.27;;;4.00;;
55222;SDS011;41090;48.632;12.428;2022-07-01T01:02:04;7.93;;;4.40;;
55222;SDS011;41090;48.632;12.428;2022-07-01T01:04:29;5.60;;;4.20;;
55222;SDS011;41090;48.632;12.428;2022-07-01T01:06:55;5.00;;;3.87;;
55222;SDS011;41090;48.632;12.428;2022-07-01T01:09:21;4.60;;;3.77;;
55222;SDS011;41090;48.632;12.428;2022-07-01T01:11:47;4.17;;;3.60;;
55222;SDS011;41090;48.632;12.428;2022-07-01T01:14:12;5.30;;;4.23;;
55222;SDS011;41090;48.632;12.428;2022-07-01T01:19:42;7.50;;;3.90;;
55222;SDS011;41090;48.632;12.428;2022-07-01T01:22:07;8.87;;;4.67;;
55222;SDS011;41090;48.632;12.428;2022-07-01T01:24:32;6.23;;;4.00;;
55222;SDS011;41090;48.632;12.428;2022-07-01T01:26:57;5.27;;;3.97;;
55222;SDS011;41090;48.632;12.428;2022-07-01T01:29:23;6.40;;;4.23;;
55222;SDS011;41090;48.632;12.428;2022-07-01T01:31:48;4.73;;;4.30;;
55222;SDS011;41090;48.632;12.428;2022-07-01T01:34:15;8.03;;;4.87;;
55222;SDS011;41090;48.632;12.428;2022-07-01T01:36:41;6.17;;;4.67;;
55222;SDS011;41090;48.632;12.428;2022-07-01T01:39:06;6.97;;;5.13;;
55222;SDS011;41090;48.632;12.428;2022-07-01T01:41:31;7.43;;;5.13;;
55222;SDS011;41090;48.632;12.428;2022-07-01T01:43:57;8.37;;;5.63;;
55222;SDS011;41090;48.632;12.428;2022-07-01T01:46:22;6.23;;;5.50;;
55222;SDS011;41090;48.632;12.428;2022-07-01T01:48:47;6.03;;;5.23;;
55222;SDS011;41090;48.632;12.428;2022-07-01T01:51:12;6.17;;;5.57;;
55222;SDS011;41090;48.632;12.428;2022-07-01T01:53:38;6.87;;;5.53;;
55222;SDS011;41090;48.632;12.428;2022-07-01T01:56:03;9.00;;;5.80;;
55222;SDS011;41090;48.632;12.428;2022-07-01T01:58:28;7.97;;;5.30;;
55222;SDS011;41090;48.632;12.428;2022-07-01T02:00:53;6.90;;;4.73;;
55222;SDS011;41090;48.632;12.428;2022-07-01T02:03:19;5.57;;;5.00;;
55222;SDS011;41090;48.632;12.428;2022-07-01T02:05:44;6.10;;;5.00;;
55222;SDS011;41090;48.632;12.428;2022-07-01T02:08:09;5.50;;;4.77;;
55222;SDS011;41090;48.632;12.428;2022-07-01T02:10:34;5.63;;;4.60;;
55222;SDS011;41090;48.632;12.428;2022-07-01T02:13:00;4.20;;;3.90;;
55222;SDS011;41090;48.632;12.428;2022-07-01T02:15:25;5.23;;;3.87;;
55222;SDS011;41090;48.632;12.428;2022-07-01T02:17:50;3.63;;;3.27;;
55222;SDS011;41090;48.632;12.428;2022-07-01T02:20:16;6.10;;;3.37;;
55222;SDS011;41090;48.632;12.428;2022-07-01T02:22:41;8.80;;;3.60;;
55222;SDS011;41090;48.632;12.428;2022-07-01T02:25:07;5.90;;;3.43;;
55222;SDS011;41090;48.632;12.428;2022-07-01T02:27:32;6.63;;;2.97;;
55222;SDS011;41090;48.632;12.428;2022-07-01T02:29:58;3.40;;;3.10;;
55222;SDS011;41090;48.632;12.428;2022-07-01T02:32:23;3.83;;;2.63;;
55222;SDS011;41090;48.632;12.428;2022-07-01T02:34:48;3.73;;;2.77;;
55222;SDS011;41090;48.632;12.428;2022-07-01T02:37:13;4.30;;;2.60;;
55222;SDS011;41090;48.632;12.428;2022-07-01T02:39:39;3.33;;;2.73;;
55222;SDS011;41090;48.632;12.428;2022-07-01T02:42:04;3.07;;;2.60;;
55222;SDS011;41090;48.632;12.428;2022-07-01T02:44:48;3.07;;;2.60;;
55222;SDS011;41090;48.632;12.428;2022-07-01T02:47:13;2.40;;;2.20;;
55222;SDS011;41090;48.632;12.428;2022-07-01T02:49:39;2.60;;;2.40;;
55222;SDS011;41090;48.632;12.428;2022-07-01T02:52:05;3.53;;;2.50;;
55222;SDS011;41090;48.632;12.428;2022-07-01T02:54:30;4.33;;;2.40;;
55222;SDS011;41090;48.632;12.428;2022-07-01T02:56:55;2.93;;;2.30;;
55222;SDS011;41090;48.632;12.428;2022-07-01T02:59:20;2.40;;;2.20;;
55222;SDS011;41090;48.632;12.428;2022-07-01T03:01:52;3.40;;;2.47;;
55222;SDS011;41090;48.632;12.428;2022-07-01T03:04:18;3.30;;;2.30;;
55222;SDS011;41090;48.632;12.428;2022-07-01T03:06:43;3.10;;;2.80;;
55222;SDS011;41090;48.632;12.428;2022-07-01T03:09:09;2.77;;;2.33;;
55222;SDS011;41090;48.632;12.428;2022-07-01T03:11:34;4.00;;;2.30;;
55222;SDS011;41090;48.632;12.428;2022-07-01T03:13:59;3.87;;;2.37;;
55222;SDS011;41090;48.632;12.428;2022-07-01T03:16:24;3.67;;;2.20;;
55222;SDS011;41090;48.632;12.428;2022-07-01T03:18:50;5.00;;;2.10;;
55222;SDS011;41090;48.632;12.428;2022-07-01T03:21:15;3.33;;;2.30;;
55222;SDS011;41090;48.632;12.428;2022-07-01T03:23:40;2.00;;;1.90;;
55222;SDS011;41090;48.632;12.428;2022-07-01T03:26:05;4.07;;;2.30;;
55222;SDS011;41090;48.632;12.428;2022-07-01T03:28:31;4.67;;;2.43;;
55222;SDS011;41090;48.632;12.428;2022-07-01T03:30:56;3.73;;;2.30;;
55222;SDS011;41090;48.632;12.428;2022-07-01T03:33:22;3.73;;;2.50;;
55222;SDS011;41090;48.632;12.428;2022-07-01T03:35:47;2.60;;;2.40;;
55222;SDS011;41090;48.632;12.428;2022-07-01T03:38:12;3.27;;;2.40;;
55222;SDS011;41090;48.632;12.428;2022-07-01T03:40:38;3.10;;;2.20;;
55222;SDS011;41090;48.632;12.428;2022-07-01T03:43:03;3.83;;;2.47;;
55222;SDS011;41090;48.632;12.428;2022-07-01T03:45:29;2.50;;;2.27;;
55222;SDS011;41090;48.632;12.428;2022-07-01T03:47:54;4.13;;;2.47;;
55222;SDS011;41090;48.632;12.428;2022-07-01T03:50:20;2.87;;;2.53;;
55222;SDS011;41090;48.632;12.428;2022-07-01T03:52:46;3.17;;;2.80;;
55222;SDS011;41090;48.632;12.428;2022-07-01T03:55:11;6.00;;;2.70;;
55222;SDS011;41090;48.632;12.428;2022-07-01T03:57:37;3.50;;;2.70;;
55222;SDS011;41090;48.632;12.428;2022-07-01T04:00:02;3.57;;;2.77;;
55222;SDS011;41090;48.632;12.428;2022-07-01T04:02:28;4.77;;;2.40;;
55222;SDS011;41090;48.632;12.428;2022-07-01T04:04:54;3.13;;;2.57;;
55222;SDS011;41090;48.632;12.428;2022-07-01T04:07:20;2.80;;;2.60;;
55222;SDS011;41090;48.632;12.428;2022-07-01T04:09:45;4.13;;;2.60;;
55222;SDS011;41090;48.632;12.428;2022-07-01T04:12:11;2.50;;;2.30;;
55222;SDS011;41090;48.632;12.428;2022-07-01T04:14:37;4.57;;;2.50;;
55222;SDS011;41090;48.632;12.428;2022-07-01T04:17:03;4.43;;;2.30;;
55222;SDS011;41090;48.632;12.428;2022-07-01T04:19:28;3.10;;;2.33;;
55222;SDS011;41090;48.632;12.428;2022-07-01T04:21:55;2.87;;;2.40;;
55222;SDS011;41090;48.632;12.428;2022-07-01T04:24:39;2.57;;;2.13;;
55222;SDS011;41090;48.632;12.428;2022-07-01T04:27:04;2.27;;;2.07;;
55222;SDS011;41090;48.632;12.428;2022-07-01T04:29:29;3.00;;;2.03;;
55222;SDS011;41090;48.632;12.428;2022-07-01T04:31:55;2.73;;;2.03;;
55222;SDS011;41090;48.632;12.428;2022-07-01T04:34:21;2.57;;;2.30;;
55222;SDS011;41090;48.632;12.428;2022-07-01T04:36:46;2.47;;;2.10;;
55222;SDS011;41090;48.632;12.428;2022-07-01T04:39:11;4.73;;;2.43;;
55222;SDS011;41090;48.632;12.428;2022-07-01T04:41:37;3.17;;;2.13;;
55222;SDS011;41090;48.632;12.428;2022-07-01T04:44:20;3.70;;;2.50;;
55222;SDS011;41090;48.632;12.428;2022-07-01T04:46:46;2.83;;;2.20;;
55222;SDS011;41090;48.632;12.428;2022-07-01T04:49:12;2.17;;;1.93;;
55222;SDS011;41090;48.632;12.428;2022-07-01T04:51:37;3.47;;;1.90;;
55222;SDS011;41090;48.632;12.428;2022-07-01T04:54:03;2.53;;;2.10;;
55222;SDS011;41090;48.632;12.428;2022-07-01T04:56:28;2.23;;;2.03;;
55222;SDS011;41090;48.632;12.428;2022-07-01T04:58:54;2.20;;;1.90;;
55222;SDS011;41090;48.632;12.428;2022-07-01T05:01:19;2.30;;;2.10;;
55222;SDS011;41090;48.632;12.428;2022-07-01T05:03:46;2.57;;;2.10;;
55222;SDS011;41090;48.632;12.428;2022-07-01T05:06:11;3.37;;;2.40;;
55222;SDS011;41090;48.632;12.428;2022-07-01T05:08:36;2.90;;;1.97;;
55222;SDS011;41090;48.632;12.428;2022-07-01T05:11:02;2.87;;;2.20;;
55222;SDS011;41090;48.632;12.428;2022-07-01T05:13:27;3.47;;;2.00;;
55222;SDS011;41090;48.632;12.428;2022-07-01T05:15:52;3.77;;;2.13;;
55222;SDS011;41090;48.632;12.428;2022-07-01T05:18:17;2.20;;;2.00;;
55222;SDS011;41090;48.632;12.428;2022-07-01T05:21:02;2.17;;;1.97;;
55222;SDS011;41090;48.632;12.428;2022-07-01T05:23:45;2.23;;;1.93;;
55222;SDS011;41090;48.632;12.428;2022-07-01T05:26:12;2.63;;;2.00;;
55222;SDS011;41090;48.632;12.428;2022-07-01T05:28:41;2.50;;;1.93;;
55222;SDS011;41090;48.632;12.428;2022-07-01T05:31:06;2.30;;;2.10;;
55222;SDS011;41090;48.632;12.428;2022-07-01T05:33:32;3.47;;;2.00;;
55222;SDS011;41090;48.632;12.428;2022-07-01T05:35:57;2.70;;;1.83;;
55222;SDS011;41090;48.632;12.428;2022-07-01T05:38:22;2.20;;;1.90;;
55222;SDS011;41090;48.632;12.428;2022-07-01T05:40:47;3.90;;;2.00;;
55222;SDS011;41090;48.632;12.428;2022-07-01T05:43:13;2.13;;;1.87;;
55222;SDS011;41090;48.632;12.428;2022-07-01T05:45:38;3.03;;;1.90;;
55222;SDS011;41090;48.632;12.428;2022-07-01T05:48:03;2.10;;;2.00;;
55222;SDS011;41090;48.632;12.428;2022-07-01T05:50:29;3.10;;;2.23;;
55222;SDS011;41090;48.632;12.428;2022-07-01T05:52:54;2.30;;;1.70;;
55222;SDS011;41090;48.632;12.428;2022-07-01T05:55:20;2.80;;;1.90;;
55222;SDS011;41090;48.632;12.428;2022-07-01T05:57:45;2.83;;;2.13;;
55222;SDS011;41090;48.632;12.428;2022-07-01T06:00:10;2.13;;;1.93;;
55222;SDS011;41090;48.632;12.428;2022-07-01T06:02:36;2.10;;;1.90;;
55222;SDS011;41090;48.632;12.428;2022-07-01T06:05:01;2.07;;;1.90;;
55222;SDS011;41090;48.632;12.428;2022-07-01T06:07:27;2.77;;;1.70;;
55222;SDS011;41090;48.632;12.428;2022-07-01T06:09:52;9.03;;;3.30;;
55222;SDS011;41090;48.632;12.428;2022-07-01T06:12:18;3.07;;;2.13;;
55222;SDS011;41090;48.632;12.428;2022-07-01T06:14:43;2.27;;;1.90;;
55222;SDS011;41090;48.632;12.428;2022-07-01T06:17:09;2.53;;;1.70;;
55222;SDS011;41090;48.632;12.428;2022-07-01T06:19:34;2.20;;;1.80;;
55222;SDS011;41090;48.632;12.428;2022-07-01T06:22:00;3.07;;;2.00;;
55222;SDS011;41090;48.632;12.428;2022-07-01T06:24:25;3.10;;;1.70;;
55222;SDS011;41090;48.632;12.428;2022-07-01T06:26:51;2.00;;;1.80;;
55222;SDS011;41090;48.632;12.428;2022-07-01T06:29:20;1.90;;;1.60;;
55222;SDS011;41090;48.632;12.428;2022-07-01T06:31:45;2.33;;;1.67;;
55222;SDS011;41090;48.632;12.428;2022-07-01T06:34:10;2.60;;;1.57;;
55222;SDS011;41090;48.632;12.428;2022-07-01T06:36:35;2.67;;;1.90;;
55222;SDS011;41090;48.632;12.428;2022-07-01T06:39:01;2.70;;;1.77;;
55222;SDS011;41090;48.632;12.428;2022-07-01T06:41:26;1.97;;;1.83;;
55222;SDS011;41090;48.632;12.428;2022-07-01T06:43:51;2.17;;;1.97;;
55222;SDS011;41090;48.632;12.428;2022-07-01T06:46:17;1.80;;;1.70;;
55222;SDS011;41090;48.632;12.428;2022-07-01T06:48:42;2.13;;;1.90;;
55222;SDS011;41090;48.632;12.428;2022-07-01T06:51:07;2.33;;;2.00;;
55222;SDS011;41090;48.632;12.428;2022-07-01T06:53:32;2.43;;;1.60;;
55222;SDS011;41090;48.632;12.428;2022-07-01T06:55:57;2.50;;;1.83;;
55222;SDS011;41090;48.632;12.428;2022-07-01T06:58:23;6.33;;;2.50;;
55222;SDS011;41090;48.632;12.428;2022-07-01T07:00:48;2.33;;;1.87;;
55222;SDS011;41090;48.632;12.428;2022-07-01T07:03:13;4.17;;;1.83;;
55222;SDS011;41090;48.632;12.428;2022-07-01T07:05:38;3.97;;;1.90;;
55222;SDS011;41090;48.632;12.428;2022-07-01T07:08:04;3.27;;;1.80;;
55222;SDS011;41090;48.632;12.428;2022-07-01T07:10:29;2.83;;;1.80;;
55222;SDS011;41090;48.632;12.428;2022-07-01T07:12:54;3.90;;;2.10;;
55222;SDS011;41090;48.632;12.428;2022-07-01T07:15:20;4.10;;;2.17;;
55222;SDS011;41090;48.632;12.428;2022-07-01T07:17:45;2.27;;;2.00;;
55222;SDS011;41090;48.632;12.428;2022-07-01T07:20:10;3.97;;;2.00;;
55222;SDS011;41090;48.632;12.428;2022-07-01T07:22:36;4.53;;;2.43;;
55222;SDS011;41090;48.632;12.428;2022-07-01T07:25:01;2.23;;;1.87;;
55222;SDS011;41090;48.632;12.428;2022-07-01T07:27:26;4.40;;;2.10;;
55222;SDS011;41090;48.632;12.428;2022-07-01T07:29:51;3.83;;;2.10;;
55222;SDS011;41090;48.632;12.428;2022-07-01T07:32:17;4.83;;;2.10;;
55222;SDS011;41090;48.632;12.428;2022-07-01T07:34:42;4.83;;;2.93;;
55222;SDS011;41090;48.632;12.428;2022-07-01T07:37:07;6.00;;;3.07;;
55222;SDS011;41090;48.632;12.428;2022-07-01T07:39:32;3.03;;;2.60;;
55222;SDS011;41090;48.632;12.428;2022-07-01T07:41:58;3.23;;;2.93;;
55222;SDS011;41090;48.632;12.428;2022-07-01T07:44:23;3.13;;;2.57;;
55222;SDS011;41090;48.632;12.428;2022-07-01T07:46:49;2.93;;;2.10;;
55222;SDS011;41090;48.632;12.428;2022-07-01T07:49:14;2.20;;;2.00;;
55222;SDS011;41090;48.632;12.428;2022-07-01T07:51:39;3.93;;;1.90;;
55222;SDS011;41090;48.632;12.428;2022-07-01T07:54:04;1.83;;;1.70;;
55222;SDS011;41090;48.632;12.428;2022-07-01T07:56:30;2.00;;;1.83;;
55222;SDS011;41090;48.632;12.428;2022-07-01T07:58:55;2.37;;;2.10;;
55222;SDS011;41090;48.632;12.428;2022-07-01T08:01:20;1.67;;;1.57;;
55222;SDS011;41090;48.632;12.428;2022-07-01T08:03:46;2.20;;;2.00;;
55222;SDS011;41090;48.632;12.428;2022-07-01T08:06:11;2.23;;;1.80;;
55222;SDS011;41090;48.632;12.428;2022-07-01T08:08:37;2.07;;;1.70;;
55222;SDS011;41090;48.632;12.428;2022-07-01T08:11:03;2.00;;;1.80;;
55222;SDS011;41090;48.632;12.428;2022-07-01T08:13:33;1.80;;;1.60;;
55222;SDS011;41090;48.632;12.428;2022-07-01T08:15:58;1.90;;;1.80;;
55222;SDS011;41090;48.632;12.428;2022-07-01T08:18:23;1.70;;;1.60;;
55222;SDS011;41090;48.632;12.428;2022-07-01T08:20:49;2.10;;;1.70;;
55222;SDS011;41090;48.632;12.428;2022-07-01T08:23:17;2.10;;;1.90;;
55222;SDS011;41090;48.632;12.428;2022-07-01T08:25:42;2.97;;;2.00;;
55222;SDS011;41090;48.632;12.428;2022-07-01T08:28:08;2.90;;;1.50;;
55222;SDS011;41090;48.632;12.428;2022-07-01T08:30:33;1.90;;;1.70;;
55222;SDS011;41090;48.632;12.428;2022-07-01T08:32:58;1.97;;;1.80;;
55222;SDS011;41090;48.632;12.428;2022-07-01T08:35:23;1.77;;;1.63;;
55222;SDS011;41090;48.632;12.428;2022-07-01T08:37:48;1.97;;;1.70;;
55222;SDS011;41090;48.632;12.428;2022-07-01T08:40:14;1.90;;;1.70;;
55222;SDS011;41090;48.632;12.428;2022-07-01T08:42:39;1.77;;;1.50;;
55222;SDS011;41090;48.632;12.428;2022-07-01T08:45:05;2.23;;;1.50;;
55222;SDS011;41090;48.632;12.428;2022-07-01T08:47:30;1.57;;;1.33;;
55222;SDS011;41090;48.632;12.428;2022-07-01T08:49:55;1.70;;;1.60;;
55222;SDS011;41090;48.632;12.428;2022-07-01T08:52:23;7.83;;;1.70;;
55222;SDS011;41090;48.632;12.428;2022-07-01T08:54:49;1.63;;;1.53;;
55222;SDS011;41090;48.632;12.428;2022-07-01T08:57:14;3.57;;;1.60;;
55222;SDS011;41090;48.632;12.428;2022-07-01T08:59:44;1.77;;;1.50;;
55222;SDS011;41090;48.632;12.428;2022-07-01T09:02:10;1.97;;;1.47;;
55222;SDS011;41090;48.632;12.428;2022-07-01T09:04:35;1.63;;;1.53;;
55222;SDS011;41090;48.632;12.428;2022-07-01T09:07:03;2.17;;;1.50;;
55222;SDS011;41090;48.632;12.428;2022-07-01T09:09:28;1.60;;;1.50;;
55222;SDS011;41090;48.632;12.428;2022-07-01T09:11:54;1.90;;;1.60;;
55222;SDS011;41090;48.632;12.428;2022-07-01T09:14:21;2.23;;;1.60;;
55222;SDS011;41090;48.632;12.428;2022-07-01T09:16:47;2.23;;;1.80;;
55222;SDS011;41090;48.632;12.428;2022-07-01T09:19:14;1.73;;;1.57;;
55222;SDS011;41090;48.632;12.428;2022-07-01T09:21:39;1.87;;;1.77;;
55222;SDS011;41090;48.632;12.428;2022-07-01T09:24:21;2.00;;;1.80;;
55222;SDS011;41090;48.632;12.428;2022-07-01T09:26:51;3.30;;;2.00;;
55222;SDS011;41090;48.632;12.428;2022-07-01T09:29:16;2.33;;;1.93;;
55222;SDS011;41090;48.632;12.428;2022-07-01T09:31:47;2.93;;;1.70;;
55222;SDS011;41090;48.632;12.428;2022-07-01T09:34:13;1.87;;;1.60;;
55222;SDS011;41090;48.632;12.428;2022-07-01T09:36:38;1.63;;;1.50;;
55222;SDS011;41090;48.632;12.428;2022-07-01T09:39:07;2.20;;;1.80;;
55222;SDS011;41090;48.632;12.428;2022-07-01T09:41:36;1.83;;;1.60;;
55222;SDS011;41090;48.632;12.428;2022-07-01T09:44:05;3.43;;;1.73;;
55222;SDS011;41090;48.632;12.428;2022-07-01T09:46:31;1.70;;;1.50;;
55222;SDS011;41090;48.632;12.428;2022-07-01T09:48:56;1.60;;;1.50;;
55222;SDS011;41090;48.632;12.428;2022-07-01T09:51:21;1.43;;;1.33;;
55222;SDS011;41090;48.632;12.428;2022-07-01T09:53:47;1.63;;;1.50;;
55222;SDS011;41090;48.632;12.428;2022-07-01T09:56:12;1.30;;;1.20;;
55222;SDS011;41090;48.632;12.428;2022-07-01T09:58:38;2.57;;;1.40;;
55222;SDS011;41090;48.632;12.428;2022-07-01T10:01:04;2.63;;;1.33;;
55222;SDS011;41090;48.632;12.428;2022-07-01T10:03:30;1.27;;;1.10;;
55222;SDS011;41090;48.632;12.428;2022-07-01T10:06:02;1.60;;;1.40;;
55222;SDS011;41090;48.632;12.428;2022-07-01T10:08:38;3.73;;;1.20;;
55222;SDS011;41090;48.632;12.428;2022-07-01T10:13:35;1.50;;;1.23;;
55222;SDS011;41090;48.632;12.428;2022-07-01T10:16:01;1.83;;;1.30;;
55222;SDS011;41090;48.632;12.428;2022-07-01T10:18:27;2.23;;;1.50;;
55222;SDS011;41090;48.632;12.428;2022-07-01T10:20:53;2.77;;;1.50;;
55222;SDS011;41090;48.632;12.428;2022-07-01T10:23:22;1.60;;;1.30;;
55222;SDS011;41090;48.632;12.428;2022-07-01T10:25:49;3.97;;;1.60;;
55222;SDS011;41090;48.632;12.428;2022-07-01T10:28:22;1.50;;;1.33;;
55222;SDS011;41090;48.632;12.428;2022-07-01T10:36:06;3.10;;;1.70;;
55222;SDS011;41090;48.632;12.428;2022-07-01T10:38:32;1.97;;;1.53;;
55222;SDS011;41090;48.632;12.428;2022-07-01T10:40:57;1.50;;;1.40;;
55222;SDS011;41090;48.632;12.428;2022-07-01T10:43:34;2.03;;;1.47;;
55222;SDS011;41090;48.632;12.428;2022-07-01T10:46:00;2.67;;;1.50;;
55222;SDS011;41090;48.632;12.428;2022-07-01T10:48:25;2.83;;;1.60;;
55222;SDS011;41090;48.632;12.428;2022-07-01T10:50:51;1.90;;;1.60;;
55222;SDS011;41090;48.632;12.428;2022-07-01T10:53:17;2.13;;;1.90;;
55222;SDS011;41090;48.632;12.428;2022-07-01T10:55:52;2.57;;;1.90;;
55222;SDS011;41090;48.632;12.428;2022-07-01T10:58:18;2.03;;;1.87;;
55222;SDS011;41090;48.632;12.428;2022-07-01T11:00:47;1.90;;;1.70;;
55222;SDS011;41090;48.632;12.428;2022-07-01T11:03:18;1.80;;;1.67;;
55222;SDS011;41090;48.632;12.428;2022-07-01T11:05:44;2.80;;;1.60;;
55222;SDS011;41090;48.632;12.428;2022-07-01T11:08:10;1.57;;;1.47;;
55222;SDS011;41090;48.632;12.428;2022-07-01T11:10:37;1.67;;;1.57;;
55222;SDS011;41090;48.632;12.428;2022-07-01T11:13:02;1.43;;;1.33;;
55222;SDS011;41090;48.632;12.428;2022-07-01T11:15:31;1.57;;;1.47;;
55222;SDS011;41090;48.632;12.428;2022-07-01T11:17:56;1.40;;;1.30;;
55222;SDS011;41090;48.632;12.428;2022-07-01T11:20:23;1.77;;;1.40;;
55222;SDS011;41090;48.632;12.428;2022-07-01T11:22:49;1.83;;;1.40;;
55222;SDS011;41090;48.632;12.428;2022-07-01T11:25:14;1.53;;;1.43;;
55222;SDS011;41090;48.632;12.428;2022-07-01T11:27:39;1.40;;;1.30;;
55222;SDS011;41090;48.632;12.428;2022-07-01T11:30:09;1.30;;;1.20;;
55222;SDS011;41090;48.632;12.428;2022-07-01T11:32:38;1.73;;;1.53;;
55222;SDS011;41090;48.632;12.428;2022-07-01T11:35:05;2.40;;;1.40;;
55222;SDS011;41090;48.632;12.428;2022-07-01T11:38:07;1.60;;;1.50;;
55222;SDS011;41090;48.632;12.428;2022-07-01T11:40:51;3.33;;;1.70;;
55222;SDS011;41090;48.632;12.428;2022-07-01T11:43:20;1.53;;;1.43;;
55222;SDS011;41090;48.632;12.428;2022-07-01T11:45:46;1.70;;;1.40;;
55222;SDS011;41090;48.632;12.428;2022-07-01T11:48:11;1.53;;;1.43;;
55222;SDS011;41090;48.632;12.428;2022-07-01T11:50:37;2.40;;;1.50;;
55222;SDS011;41090;48.632;12.428;2022-07-01T11:53:03;1.67;;;1.47;;
55222;SDS011;41090;48.632;12.428;2022-07-01T11:55:28;2.90;;;1.40;;
55222;SDS011;41090;48.632;12.428;2022-07-01T11:57:53;2.47;;;1.47;;
55222;SDS011;41090;48.632;12.428;2022-07-01T12:00:18;2.33;;;1.63;;
55222;SDS011;41090;48.632;12.428;2022-07-01T12:02:44;1.90;;;1.53;;
55222;SDS011;41090;48.632;12.428;2022-07-01T12:05:16;1.57;;;1.40;;
55222;SDS011;41090;48.632;12.428;2022-07-01T12:07:44;4.83;;;1.53;;
55222;SDS011;41090;48.632;12.428;2022-07-01T12:10:10;2.77;;;1.47;;
55222;SDS011;41090;48.632;12.428;2022-07-01T12:12:35;3.63;;;1.50;;
55222;SDS011;41090;48.632;12.428;2022-07-01T12:15:01;1.40;;;1.30;;
55222;SDS011;41090;48.632;12.428;2022-07-01T12:17:27;2.50;;;1.40;;
55222;SDS011;41090;48.632;12.428;2022-07-01T12:19:52;2.90;;;1.30;;
55222;SDS011;41090;48.632;12.428;2022-07-01T12:22:19;1.43;;;1.33;;
55222;SDS011;41090;48.632;12.428;2022-07-01T12:24:45;1.50;;;1.40;;
55222;SDS011;41090;48.632;12.428;2022-07-01T12:27:11;1.67;;;1.57;;
55222;SDS011;41090;48.632;12.428;2022-07-01T12:32:14;1.70;;;1.40;;
55222;SDS011;41090;48.632;12.428;2022-07-01T12:37:12;1.63;;;1.40;;
55222;SDS011;41090;48.632;12.428;2022-07-01T12:39:45;2.00;;;1.40;;
55222;SDS011;41090;48.632;12.428;2022-07-01T12:45:16;1.47;;;1.37;;
55222;SDS011;41090;48.632;12.428;2022-07-01T12:47:51;2.67;;;1.40;;
55222;SDS011;41090;48.632;12.428;2022-07-01T12:50:18;4.37;;;1.40;;
55222;SDS011;41090;48.632;12.428;2022-07-01T12:55:22;2.47;;;1.40;;
55222;SDS011;41090;48.632;12.428;2022-07-01T12:57:48;1.60;;;1.50;;
55222;SDS011;41090;48.632;12.428;2022-07-01T13:00:14;4.17;;;3.77;;
55222;SDS011;41090;48.632;12.428;2022-07-01T13:02:40;2.70;;;2.50;;
55222;SDS011;41090;48.632;12.428;2022-07-01T13:05:05;3.37;;;3.03;;
55222;SDS011;41090;48.632;12.428;2022-07-01T13:07:30;5.37;;;4.13;;
55222;SDS011;41090;48.632;12.428;2022-07-01T13:09:56;2.53;;;1.97;;
55222;SDS011;41090;48.632;12.428;2022-07-01T13:12:21;1.60;;;1.50;;
55222;SDS011;41090;48.632;12.428;2022-07-01T13:14:46;2.00;;;1.50;;
55222;SDS011;41090;48.632;12.428;2022-07-01T13:17:11;2.10;;;1.40;;
55222;SDS011;41090;48.632;12.428;2022-07-01T13:19:37;1.37;;;1.27;;
55222;SDS011;41090;48.632;12.428;2022-07-01T13:22:03;2.30;;;1.50;;
55222;SDS011;41090;48.632;12.428;2022-07-01T13:24:29;1.30;;;1.20;;
55222;SDS011;41090;48.632;12.428;2022-07-01T13:27:00;1.40;;;1.30;;
55222;SDS011;41090;48.632;12.428;2022-07-01T13:29:25;1.80;;;1.50;;
55222;SDS011;41090;48.632;12.428;2022-07-01T13:31:51;2.90;;;1.50;;
55222;SDS011;41090;48.632;12.428;2022-07-01T13:34:16;2.63;;;1.57;;
55222;SDS011;41090;48.632;12.428;2022-07-01T13:36:41;2.70;;;1.50;;
55222;SDS011;41090;48.632;12.428;2022-07-01T13:39:07;3.00;;;1.50;;
55222;SDS011;41090;48.632;12.428;2022-07-01T13:41:32;1.67;;;1.57;;
55222;SDS011;41090;48.632;12.428;2022-07-01T13:43:57;2.57;;;1.60;;
55222;SDS011;41090;48.632;12.428;2022-07-01T13:46:22;3.33;;;1.77;;
55222;SDS011;41090;48.632;12.428;2022-07-01T13:48:48;2.27;;;1.80;;
55222;SDS011;41090;48.632;12.428;2022-07-01T13:51:13;1.60;;;1.50;;
55222;SDS011;41090;48.632;12.428;2022-07-01T13:53:38;1.67;;;1.40;;
55222;SDS011;41090;48.632;12.428;2022-07-01T13:56:03;1.97;;;1.50;;
55222;SDS011;41090;48.632;12.428;2022-07-01T13:58:29;1.53;;;1.40;;
55222;SDS011;41090;48.632;12.428;2022-07-01T14:19:12;2.40;;;1.30;;
55222;SDS011;41090;48.632;12.428;2022-07-01T14:39:59;2.60;;;1.53;;
55222;SDS011;41090;48.632;12.428;2022-07-01T14:42:24;1.70;;;1.60;;
55222;SDS011;41090;48.632;12.428;2022-07-01T14:44:50;1.90;;;1.40;;
55222;SDS011;41090;48.632;12.428;2022-07-01T14:47:15;2.90;;;1.97;;
55222;SDS011;41090;48.632;12.428;2022-07-01T14:49:40;3.13;;;1.80;;
55222;SDS011;41090;48.632;12.428;2022-07-01T14:52:09;1.80;;;1.70;;
55222;SDS011;41090;48.632;12.428;2022-07-01T14:54:34;5.10;;;2.00;;
55222;SDS011;41090;48.632;12.428;2022-07-01T14:57:03;1.73;;;1.63;;
55222;SDS011;41090;48.632;12.428;2022-07-01T14:59:28;2.30;;;1.80;;
55222;SDS011;41090;48.632;12.428;2022-07-01T15:01:53;2.60;;;2.10;;
55222;SDS011;41090;48.632;12.428;2022-07-01T15:04:21;4.10;;;2.60;;
55222;SDS011;41090;48.632;12.428;2022-07-01T15:06:46;3.30;;;2.40;;
55222;SDS011;41090;48.632;12.428;2022-07-01T15:09:11;4.03;;;2.60;;
55222;SDS011;41090;48.632;12.428;2022-07-01T15:11:36;5.47;;;2.23;;
55222;SDS011;41090;48.632;12.428;2022-07-01T15:14:02;2.63;;;2.40;;
55222;SDS011;41090;48.632;12.428;2022-07-01T15:16:27;3.73;;;2.50;;
55222;SDS011;41090;48.632;12.428;2022-07-01T15:18:52;4.17;;;2.50;;
55222;SDS011;41090;48.632;12.428;2022-07-01T15:21:18;2.90;;;2.50;;
55222;SDS011;41090;48.632;12.428;2022-07-01T15:23:43;4.53;;;2.70;;
55222;SDS011;41090;48.632;12.428;2022-07-01T15:26:08;6.30;;;3.47;;